Time;durP1;ratioP1;P1;durP2;ratioP2;P2;SDS_P1;SDS_P2;PMS_P1;PMS_P2;Temp;Humidity;BMP_temperature;BMP_pressure;BME280_temperature;BME280_humidity;BME280_pressure;Samples;Min_cycle;Max_cycle;Signal;HPM_P1;HPM_P2
2023/10/05 00:02:08;;;;;;;6.62;1.80;;;;;;;12.21;100.00;99698.53;4484073;31;20139;-79
2023/10/05 00:04:41;;;;;;;2.10;1.20;;;;;;;12.18;100.00;99698.78;4484039;31;20081;-79
2023/10/05 00:07:19;;;;;;;;;;;;;;;12.35;100.00;99693.94;4484295;31;20089;-79
2023/10/05 00:09:48;;;;;;;4.87;1.58;;;;;;;12.18;100.00;99696.16;4484113;31;20016;-79
2023/10/05 00:12:19;;;;;;;4.55;1.75;;;;;;;12.14;100.00;99701.78;4485410;32;20100;-79
2023/10/05 00:14:48;;;;;;;3.72;1.50;;;;;;;12.13;100.00;99706.19;4485931;31;20445;-79
2023/10/05 00:17:19;;;;;;;13.52;1.95;;;;;;;12.12;100.00;99709.78;4470943;31;20065;-79
2023/10/05 00:19:46;;;;;;;3.10;1.45;;;;;;;12.12;100.00;99714.22;4470324;32;20102;-79
2023/10/05 00:22:14;;;;;;;3.53;1.48;;;;;;;12.14;100.00;99707.88;4470175;32;20468;-79
2023/10/05 00:24:43;;;;;;;2.85;1.37;;;;;;;12.16;100.00;99698.06;4470096;32;20598;-79
2023/10/05 00:27:11;;;;;;;3.75;1.48;;;;;;;12.15;100.00;99692.94;4470296;32;20433;-79
2023/10/05 00:29:46;;;;;;;2.60;1.65;;;;;;;12.14;100.00;99692.12;4470258;32;20145;-79
2023/10/05 00:32:33;;;;;;;2.58;1.62;;;;;;;12.16;100.00;99695.44;4470153;32;20085;-79
2023/10/05 00:37:38;;;;;;;3.03;1.87;;;;;;;12.13;100.00;99693.06;4469015;32;20100;-79
2023/10/05 00:40:10;;;;;;;3.10;1.62;;;;;;;12.19;100.00;99686.50;4470208;32;20097;-79
2023/10/05 00:42:37;;;;;;;4.18;1.55;;;;;;;12.21;100.00;99689.81;4470198;32;20089;-79
2023/10/05 00:45:08;;;;;;;3.35;1.60;;;;;;;12.13;100.00;99687.00;4470047;32;20119;-79
2023/10/05 00:47:35;;;;;;;3.72;1.70;;;;;;;12.13;100.00;99687.00;4470121;32;20144;-79
2023/10/05 00:50:04;;;;;;;5.95;1.58;;;;;;;12.21;100.00;99682.75;4470057;32;20140;-79
2023/10/05 00:52:35;;;;;;;5.10;1.90;;;;;;;12.26;100.00;99685.00;4470075;32;20152;-79
2023/10/05 00:55:09;;;;;;;3.50;1.87;;;;;;;12.33;100.00;99690.63;4470072;32;20101;-79
2023/10/05 00:57:37;;;;;;;3.65;1.85;;;;;;;12.33;100.00;99691.44;4469980;32;20109;-79
2023/10/05 01:02:44;;;;;;;2.75;1.80;;;;;;;12.23;100.00;99691.38;4469919;32;20092;-79
2023/10/05 01:05:25;;;;;;;4.12;1.80;;;;;;;12.15;100.00;99685.06;4468716;32;20142;-79
2023/10/05 01:08:03;;;;;;;4.30;1.77;;;;;;;12.09;100.00;99683.75;4469927;32;20119;-79
2023/10/05 01:10:43;;;;;;;4.32;1.85;;;;;;;12.07;100.00;99675.19;4469971;32;20093;-78
2023/10/05 01:13:43;;;;;;;4.00;1.58;;;;;;;11.95;100.00;99679.63;4469762;32;20084;-79
2023/10/05 01:16:19;;;;;;;1.83;1.30;;;;;;;11.99;100.00;99672.31;4413048;32;20121;-79
2023/10/05 01:18:47;;;;;;;3.55;1.73;;;;;;;11.93;100.00;99673.69;4420924;32;20134;-79
2023/10/05 01:21:17;;;;;;;4.80;1.60;;;;;;;11.97;100.00;99674.25;4420880;32;20110;-79
2023/10/05 01:23:48;;;;;;;4.40;1.80;;;;;;;11.92;100.00;99679.84;4420288;32;20230;-79
2023/10/05 01:26:16;;;;;;;3.10;1.52;;;;;;;11.90;100.00;99674.72;4420702;32;20117;-79
2023/10/05 01:28:43;;;;;;;3.85;1.62;;;;;;;11.88;100.00;99671.38;4420958;32;20946;-79
2023/10/05 01:31:17;;;;;;;2.83;1.40;;;;;;;11.85;100.00;99673.41;4420898;32;20203;-79
2023/10/05 01:33:46;;;;;;;4.30;1.50;;;;;;;11.82;100.00;99673.66;4420899;32;20105;-79
2023/10/05 01:36:19;;;;;;;2.90;1.35;;;;;;;11.78;100.00;99673.06;4420665;32;20563;-79
2023/10/05 01:38:48;;;;;;;3.30;1.40;;;;;;;11.78;100.00;99672.22;4420815;32;20114;-79
2023/10/05 01:41:22;;;;;;;2.45;1.60;;;;;;;11.79;100.00;99671.28;4421002;32;20121;-79
2023/10/05 01:43:51;;;;;;;2.87;1.77;;;;;;;11.76;100.00;99667.09;4421038;32;20147;-79
2023/10/05 01:46:20;;;;;;;2.80;1.45;;;;;;;11.78;100.00;99664.34;4420691;32;20590;-79
2023/10/05 01:48:48;;;;;;;4.97;1.65;;;;;;;11.73;100.00;99662.09;4420578;32;20185;-79
2023/10/05 01:51:23;;;;;;;3.87;1.60;;;;;;;11.75;100.00;99659.34;4437108;32;20100;-79
2023/10/05 01:53:52;;;;;;;3.37;1.70;;;;;;;11.65;100.00;99661.88;4476992;31;20140;-79
2023/10/05 01:56:23;;;;;;;2.75;1.40;;;;;;;11.66;100.00;99664.38;4469582;32;20089;-79
2023/10/05 01:58:50;;;;;;;7.65;1.45;;;;;;;11.61;100.00;99657.81;4469636;32;20101;-79
2023/10/05 02:01:26;;;;;;;4.45;1.75;;;;;;;11.50;100.00;99654.25;4469459;32;20153;-79
2023/10/05 02:03:57;;;;;;;3.03;1.50;;;;;;;11.44;100.00;99657.37;4469528;32;20107;-79
2023/10/05 02:06:28;;;;;;;5.82;2.45;;;;;;;11.56;100.00;99655.56;4469245;32;20073;-79
2023/10/05 02:08:56;;;;;;;3.35;1.30;;;;;;;11.57;100.00;99656.38;4469651;32;20166;-79
2023/10/05 02:11:24;;;;;;;3.00;1.45;;;;;;;11.62;100.00;99641.94;4469447;32;20177;-79
2023/10/05 02:14:01;;;;;;;4.28;1.17;;;;;;;11.74;100.00;99641.94;4469799;32;20135;-79
2023/10/05 02:16:30;;;;;;;2.65;1.33;;;;;;;11.84;100.00;99633.19;4479289;32;20122;-79
2023/10/05 02:19:04;;;;;;;3.58;1.52;;;;;;;11.86;100.00;99627.81;4485042;31;20454;-79
2023/10/05 02:21:36;;;;;;;3.95;1.65;;;;;;;11.73;100.00;99635.84;4485300;31;20145;-79
2023/10/05 02:24:18;;;;;;;5.20;1.42;;;;;;;11.64;100.00;99631.31;4485239;31;20592;-79
2023/10/05 02:29:29;;;;;;;4.78;2.75;;;;;;;11.67;100.00;99621.44;4485197;31;20092;-79
2023/10/05 02:32:09;;;;;;;3.33;1.50;;;;;;;11.75;100.00;99625.22;4484766;31;20096;-79
2023/10/05 02:37:28;;;;;;;3.25;1.40;;;;;;;11.75;100.00;99622.59;4484761;31;20096;-79
2023/10/05 02:39:57;;;;;;;3.67;1.55;;;;;;;11.72;100.00;99615.81;4485138;31;20465;-79
2023/10/05 02:42:26;;;;;;;3.33;1.27;;;;;;;11.78;100.00;99611.84;4484961;31;20438;-79
2023/10/05 02:44:54;;;;;;;4.07;1.42;;;;;;;11.80;100.00;99609.94;4485129;31;20474;-79
2023/10/05 02:47:24;;;;;;;3.75;1.55;;;;;;;11.78;100.00;99623.19;4484843;31;20096;-79
2023/10/05 02:49:52;;;;;;;2.55;1.25;;;;;;;11.73;100.00;99614.84;4484955;32;20073;-79
2023/10/05 02:52:20;;;;;;;3.53;1.20;;;;;;;11.66;100.00;99616.31;4484867;31;20135;-79
2023/10/05 02:54:48;;;;;;;2.55;1.35;;;;;;;11.54;100.00;99620.75;4470481;31;20522;-79
2023/10/05 02:57:19;;;;;;;3.55;1.60;;;;;;;11.49;100.00;99618.50;4469171;32;20142;-79
2023/10/05 02:59:49;;;;;;;3.12;1.30;;;;;;;11.46;100.00;99618.72;4469061;32;20096;-79
2023/10/05 03:02:18;;;;;;;3.90;1.70;;;;;;;11.36;100.00;99621.25;4469228;32;20101;-79
2023/10/05 03:04:46;;;;;;;3.47;1.40;;;;;;;11.39;100.00;99616.72;4469176;32;20145;-79
2023/10/05 03:07:18;;;;;;;2.47;1.33;;;;;;;11.41;100.00;99622.66;4469132;32;20170;-79
2023/10/05 03:09:47;;;;;;;6.25;1.40;;;;;;;11.39;100.00;99614.94;4469414;32;20152;-79
2023/10/05 03:12:20;;;;;;;9.82;1.58;;;;;;;11.35;100.00;99616.09;4469249;32;20093;-79
2023/10/05 03:14:52;;;;;;;11.35;2.20;;;;;;;11.27;100.00;99623.75;4469432;32;20100;-79
2023/10/05 03:17:20;;;;;;;14.75;2.05;;;;;;;11.25;100.00;99625.66;4484207;32;20172;-79
2023/10/05 03:19:52;;;;;;;9.55;1.70;;;;;;;11.19;100.00;99625.19;4484874;31;20154;-79
2023/10/05 03:22:23;;;;;;;7.05;1.60;;;;;;;11.13;100.00;99622.22;4484916;31;20100;-79
2023/10/05 03:24:53;;;;;;;5.25;1.95;;;;;;;10.97;100.00;99625.19;4485015;31;20093;-79
2023/10/05 03:27:22;;;;;;;3.28;1.62;;;;;;;10.88;100.00;99628.53;4484834;31;20599;-79
2023/10/05 03:29:52;;;;;;;8.18;1.50;;;;;;;10.82;100.00;99621.97;4484728;31;20100;-79
2023/10/05 03:32:20;;;;;;;3.70;1.62;;;;;;;10.78;100.00;99620.50;4484447;31;20110;-79
2023/10/05 03:34:55;;;;;;;4.47;1.70;;;;;;;10.70;100.00;99625.50;4484208;31;20085;-79
2023/10/05 03:37:24;;;;;;;4.32;1.73;;;;;;;10.56;100.00;99634.44;4484426;32;20145;-79
2023/10/05 03:40:06;;;;;;;6.57;2.30;;;;;;;10.61;100.00;99633.13;4484319;32;20096;-79
2023/10/05 03:42:34;;;;;;;3.42;1.98;;;;;;;10.84;100.00;99638.41;4484446;31;20114;-79
2023/10/05 03:45:04;;;;;;;4.90;1.90;;;;;;;10.89;100.00;99640.69;4484372;31;20120;-79
2023/10/05 03:47:34;;;;;;;3.17;1.75;;;;;;;10.94;100.00;99644.59;4484060;32;20145;-79
2023/10/05 03:50:02;;;;;;;4.55;2.00;;;;;;;11.02;100.00;99646.62;4484727;31;20116;-79
2023/10/05 03:52:32;;;;;;;4.50;2.03;;;;;;;10.98;100.00;99637.34;4484476;31;20869;-79
2023/10/05 03:55:09;;;;;;;3.28;1.65;;;;;;;10.83;100.00;99632.31;4468892;32;20139;-79
2023/10/05 03:57:41;;;;;;;3.30;1.65;;;;;;;10.75;100.00;99621.59;4468557;32;20081;-79
2023/10/05 04:00:48;;;;;;;5.45;2.03;;;;;;;10.67;100.00;99615.28;4468928;32;20158;-79
2023/10/05 04:03:06;;;;;;;2.80;1.58;;;;;;;10.61;100.00;99609.56;4468167;32;20166;-79
2023/10/05 04:05:37;;;;;;;2.95;1.70;;;;;;;10.55;100.00;99609.16;4468453;32;20077;-79
2023/10/05 04:08:11;;;;;;;3.90;1.58;;;;;;;10.69;100.00;99622.06;4468576;32;20123;-80
2023/10/05 04:10:49;;;;;;;3.60;1.48;;;;;;;10.80;100.00;99627.31;4468367;32;20093;-78
2023/10/05 04:13:20;;;;;;;3.75;1.58;;;;;;;10.91;100.00;99621.25;4468062;32;20110;-77
2023/10/05 04:15:47;;;;;;;4.65;1.48;;;;;;;10.95;100.00;99629.72;4473466;32;20183;-78
2023/10/05 04:18:20;;;;;;;2.45;1.65;;;;;;;10.92;100.00;99629.97;4484061;31;20101;-79
2023/10/05 04:20:48;;;;;;;4.03;1.60;;;;;;;10.90;100.00;99630.09;4484152;31;20124;-79
2023/10/05 04:23:25;;;;;;;4.35;1.65;;;;;;;10.85;100.00;99637.44;4483956;32;20471;-80
2023/10/05 04:25:54;;;;;;;2.33;1.40;;;;;;;10.86;100.00;99635.69;4483934;31;20084;-80
2023/10/05 04:28:34;;;;;;;4.55;1.80;;;;;;;10.74;100.00;99635.66;4484005;31;20076;-79
2023/10/05 04:31:10;;;;;;;4.28;1.73;;;;;;;10.66;100.00;99643.28;4483689;31;20126;-79
2023/10/05 04:33:39;;;;;;;1.92;1.10;;;;;;;10.62;100.00;99641.81;4486654;31;20089;-80
2023/10/05 04:36:07;;;;;;;2.95;1.33;;;;;;;10.66;100.00;99640.66;4490185;31;20497;-81
2023/10/05 04:38:34;;;;;;;2.37;1.25;;;;;;;10.68;100.00;99641.34;4490146;31;20119;-81
2023/10/05 04:41:01;;;;;;;3.53;1.90;;;;;;;10.70;100.00;99636.81;4491836;31;20156;-80
2023/10/05 04:43:29;;;;;;;3.33;1.52;;;;;;;10.77;100.00;99651.13;4492003;31;20100;-81
2023/10/05 04:45:57;;;;;;;4.43;1.62;;;;;;;10.85;100.00;99657.59;4488336;31;20100;-82
2023/10/05 04:48:25;;;;;;;4.25;1.70;;;;;;;10.86;100.00;99659.28;4491629;31;20100;-81
2023/10/05 04:50:59;;;;;;;4.00;2.03;;;;;;;10.85;100.00;99663.66;4490483;31;20095;-80
2023/10/05 04:53:27;;;;;;;7.32;2.03;;;;;;;10.94;100.00;99664.75;4488428;31;20709;-80
2023/10/05 04:56:10;;;;;;;2.35;1.40;;;;;;;10.92;100.00;99650.94;4485391;31;20101;-80
2023/10/05 05:01:36;;;;;;;4.90;1.40;;;;;;;10.78;100.00;99663.31;4480938;32;20104;-81
2023/10/05 05:04:27;;;;;;;2.85;1.37;;;;;;;10.88;100.00;99662.59;4482308;31;20157;-81
2023/10/05 05:07:00;;;;;;;3.08;1.30;;;;;;;10.90;100.00;99660.69;4478617;32;20096;-80
2023/10/05 05:09:35;;;;;;;3.67;1.75;;;;;;;10.80;100.00;99663.19;4480588;31;20114;-81
2023/10/05 05:12:05;;;;;;;6.87;1.30;;;;;;;10.75;100.00;99663.53;4484541;32;20092;-80
2023/10/05 05:14:35;;;;;;;5.37;1.40;;;;;;;10.72;100.00;99670.78;4477765;32;20124;-81
2023/10/05 05:17:06;;;;;;;2.37;1.45;;;;;;;10.73;100.00;99673.28;4476300;32;20108;-82
2023/10/05 05:19:39;;;;;;;9.07;1.30;;;;;;;10.66;100.00;99674.72;4476570;32;20553;-81
2023/10/05 05:22:08;;;;;;;3.95;1.17;;;;;;;10.68;100.00;99678.03;4479111;32;20101;-81
2023/10/05 05:24:37;;;;;;;1.73;0.95;;;;;;;10.70;100.00;99676.13;4480892;32;20096;-80
2023/10/05 05:27:19;;;;;;;3.12;1.45;;;;;;;10.78;100.00;99671.16;4483965;31;20096;-81
2023/10/05 05:29:51;;;;;;;5.47;1.15;;;;;;;10.77;100.00;99674.72;4478104;32;20172;-81
2023/10/05 05:32:21;;;;;;;4.00;1.30;;;;;;;10.81;100.00;99670.94;4473520;32;20538;-81
2023/10/05 05:34:50;;;;;;;5.78;1.60;;;;;;;10.87;100.00;99674.03;4476683;31;20400;-81
2023/10/05 05:37:27;;;;;;;4.85;1.15;;;;;;;10.92;100.00;99687.63;4482382;31;20163;-82
2023/10/05 05:39:56;;;;;;;7.75;1.33;;;;;;;11.09;100.00;99694.22;4477099;32;20092;-82
2023/10/05 05:42:25;;;;;;;8.25;1.25;;;;;;;11.22;100.00;99686.22;4480483;31;20227;-82
2023/10/05 05:44:53;;;;;;;8.32;1.40;;;;;;;11.32;100.00;99684.56;4474731;32;20688;-81
2023/10/05 05:47:20;;;;;;;5.95;1.48;;;;;;;11.44;99.76;99678.34;4479584;31;20530;-82
2023/10/05 05:49:50;;;;;;;5.30;1.50;;;;;;;11.61;99.57;99686.69;4483619;31;20183;-81
2023/10/05 05:52:19;;;;;;;2.22;1.20;;;;;;;11.82;98.50;99681.53;4483186;31;20100;-82
2023/10/05 05:54:47;;;;;;;2.95;1.37;;;;;;;12.07;97.65;99673.37;4479126;31;20142;-81
2023/10/05 05:57:24;;;;;;;6.15;1.60;;;;;;;12.31;97.17;99677.59;4482586;32;20092;-83
2023/10/05 05:59:52;;;;;;;15.52;1.75;;;;;;;12.56;94.01;99681.66;4472892;32;20088;-83
2023/10/05 06:02:20;;;;;;;25.60;2.10;;;;;;;12.77;93.33;99678.19;4479171;32;20093;-80
2023/10/05 06:04:49;;;;;;;26.87;2.45;;;;;;;12.95;94.64;99679.28;4484820;31;20968;-81
2023/10/05 06:07:17;;;;;;;19.58;2.65;;;;;;;13.17;94.28;99672.22;4483680;31;20137;-82
2023/10/05 06:09:45;;;;;;;9.07;1.87;;;;;;;13.32;92.35;99668.25;4477222;31;20096;-80
2023/10/05 06:12:15;;;;;;;9.35;1.52;;;;;;;13.54;92.02;99681.37;4474410;32;21283;-81
2023/10/05 06:14:43;;;;;;;13.18;1.70;;;;;;;13.80;91.73;99681.72;4471925;32;20097;-78
2023/10/05 06:17:10;;;;;;;12.70;1.40;;;;;;;13.96;91.47;99670.63;4474945;32;20235;-82
2023/10/05 06:19:39;;;;;;;9.32;1.52;;;;;;;14.11;88.42;99663.16;4481063;31;20113;-79
2023/10/05 06:22:07;;;;;;;12.77;3.10;;;;;;;14.28;87.50;99659.88;4476936;32;20149;-80
2023/10/05 06:24:40;;;;;;;14.48;4.15;;;;;;;14.50;84.55;99665.81;4481960;31;20888;-80
2023/10/05 06:27:09;;;;;;;16.42;2.30;;;;;;;14.83;83.70;99661.06;4461250;32;20108;-79
2023/10/05 06:29:36;;;;;;;7.37;2.20;;;;;;;15.01;81.19;99655.91;4470748;32;20093;-80
2023/10/05 06:32:04;;;;;;;11.35;1.55;;;;;;;15.21;80.00;99661.94;4471529;32;20112;-78
2023/10/05 06:34:34;;;;;;;11.93;2.97;;;;;;;15.50;76.56;99666.25;4467685;32;20127;-79
2023/10/05 06:37:02;;;;;;;10.05;2.28;;;;;;;15.69;74.56;99673.25;4474550;32;20564;-79
2023/10/05 06:39:30;;;;;;;2.75;1.30;;;;;;;15.78;72.09;99667.09;4468261;31;20115;-82
2023/10/05 06:41:58;;;;;;;1.48;0.98;;;;;;;15.88;69.59;99670.53;4472526;32;20898;-80
2023/10/05 06:44:28;;;;;;;11.32;2.80;;;;;;;15.94;68.01;99669.91;4471597;31;20108;-76
2023/10/05 06:46:59;;;;;;;16.67;2.33;;;;;;;16.07;68.22;99671.38;4468633;31;20152;-79
2023/10/05 06:49:27;;;;;;;3.40;1.40;;;;;;;16.25;66.79;99664.25;4473872;32;20565;-80
2023/10/05 06:51:55;;;;;;;2.33;1.10;;;;;;;16.32;65.32;99672.41;4472994;32;20152;-79
2023/10/05 06:54:23;;;;;;;4.07;1.62;;;;;;;16.36;62.13;99673.75;4471489;32;20168;-79
2023/10/05 06:56:51;;;;;;;4.53;1.90;;;;;;;16.42;65.01;99667.88;4470071;32;20103;-78
2023/10/05 06:59:20;;;;;;;3.95;1.35;;;;;;;16.56;60.75;99668.31;4472888;32;20520;-76
2023/10/05 07:01:49;;;;;;;4.78;1.30;;;;;;;16.77;61.61;99675.91;4472294;32;20577;-79
2023/10/05 07:04:24;;;;;;;2.53;1.00;;;;;;;16.87;61.36;99671.38;4474267;31;20129;-81
2023/10/05 07:06:52;;;;;;;2.40;1.12;;;;;;;16.95;60.79;99674.06;4471698;32;20112;-81
2023/10/05 07:09:26;;;;;;;15.43;1.60;;;;;;;17.05;58.83;99683.72;4472149;32;20161;-79
2023/10/05 07:11:54;;;;;;;4.00;1.20;;;;;;;17.00;58.74;99677.09;4469771;32;20081;-82
2023/10/05 07:14:22;;;;;;;6.90;1.20;;;;;;;17.10;58.65;99670.84;4468502;32;20100;-80
2023/10/05 07:16:55;;;;;;;5.65;1.40;;;;;;;17.16;59.03;99676.34;4469137;32;20112;-79
2023/10/05 07:19:23;;;;;;;4.32;1.50;;;;;;;17.17;59.18;99683.31;4467927;32;20503;-79
2023/10/05 07:21:50;;;;;;;5.75;2.85;;;;;;;17.20;59.83;99679.53;4470793;32;20105;-76
2023/10/05 07:24:20;;;;;;;2.60;1.37;;;;;;;17.37;59.28;99683.06;4467851;32;20159;-78
2023/10/05 07:26:47;;;;;;;6.05;1.42;;;;;;;17.37;58.43;99688.37;4468838;32;20109;-80
2023/10/05 07:29:15;;;;;;;2.75;1.40;;;;;;;17.49;58.92;99678.34;4474426;31;20167;-80
2023/10/05 07:31:58;;;;;;;4.70;1.35;;;;;;;17.65;57.72;99682.84;4470006;32;20463;-80
2023/10/05 07:34:25;;;;;;;2.47;1.20;;;;;;;17.79;58.71;99676.94;4468950;32;20552;-81
2023/10/05 07:36:57;;;;;;;5.95;1.30;;;;;;;17.84;56.74;99685.22;4472156;32;20115;-80
2023/10/05 07:39:25;;;;;;;7.12;1.75;;;;;;;17.94;57.10;99682.47;4475860;32;20080;-79
2023/10/05 07:41:53;;;;;;;5.15;1.08;;;;;;;18.02;56.82;99679.84;4471947;32;20139;-80
2023/10/05 07:44:21;;;;;;;23.23;2.28;;;;;;;18.05;54.57;99678.69;4472283;31;20126;-80
2023/10/05 07:46:49;;;;;;;7.95;1.40;;;;;;;18.09;59.84;99677.34;4470781;32;20159;-81
2023/10/05 07:49:17;;;;;;;5.72;1.45;;;;;;;18.23;57.32;99682.03;4474028;31;20113;-81
2023/10/05 07:51:44;;;;;;;4.53;1.33;;;;;;;18.24;55.67;99681.03;4468158;32;20108;-81
2023/10/05 07:54:12;;;;;;;7.60;1.60;;;;;;;18.20;53.90;99686.84;4471847;31;20160;-79
2023/10/05 07:56:40;;;;;;;3.17;1.42;;;;;;;18.16;54.61;99688.97;4468303;31;20211;-81
2023/10/05 07:59:13;;;;;;;6.03;1.77;;;;;;;18.39;55.25;99688.34;4469400;32;20150;-80
2023/10/05 08:01:41;;;;;;;8.25;1.40;;;;;;;18.58;54.62;99693.31;4467791;32;20104;-80
2023/10/05 08:04:12;;;;;;;6.45;1.77;;;;;;;18.49;53.62;99689.00;4473894;32;20088;-80
2023/10/05 08:06:43;;;;;;;9.85;2.37;;;;;;;18.46;54.51;99693.81;4467348;32;20109;-80
2023/10/05 08:09:20;;;;;;;4.47;1.55;;;;;;;18.71;54.75;99694.63;4466411;32;20123;-79
2023/10/05 08:11:50;;;;;;;8.57;1.90;;;;;;;18.63;54.49;99690.97;4468390;32;20104;-81
2023/10/05 08:14:20;;;;;;;4.55;1.80;;;;;;;18.80;54.75;99691.81;4470517;32;20482;-78
2023/10/05 08:16:48;;;;;;;4.15;1.45;;;;;;;18.96;55.21;99690.97;4468893;32;20096;-78
2023/10/05 08:19:21;;;;;;;6.03;1.67;;;;;;;18.82;54.29;99688.16;4474824;32;20154;-78
2023/10/05 08:21:49;;;;;;;5.45;2.10;;;;;;;19.01;54.41;99687.81;4470455;31;20571;-79
2023/10/05 08:24:17;;;;;;;6.55;2.40;;;;;;;19.21;57.82;99685.59;4469921;31;20123;-77
2023/10/05 08:26:49;;;;;;;5.22;2.25;;;;;;;19.14;55.59;99689.97;4468887;32;20104;-76
2023/10/05 08:29:18;;;;;;;7.28;2.40;;;;;;;19.28;56.10;99683.09;4470253;31;20117;-81
2023/10/05 08:31:45;;;;;;;10.50;2.65;;;;;;;19.36;59.07;99684.91;4472929;31;20088;-79
2023/10/05 08:34:23;;;;;;;6.72;2.75;;;;;;;19.48;57.46;99683.53;4474555;31;20724;-78
2023/10/05 08:36:54;;;;;;;7.93;2.42;;;;;;;19.36;55.86;99685.72;4471296;31;20119;-78
2023/10/05 08:39:26;;;;;;;9.57;3.75;;;;;;;19.43;55.39;99697.34;4473034;32;20113;-79
2023/10/05 08:42:06;;;;;;;6.97;2.65;;;;;;;19.34;54.25;99693.03;4471361;32;20085;-77
2023/10/05 08:44:38;;;;;;;9.45;2.42;;;;;;;19.04;54.27;99678.69;4473355;32;20096;-79
2023/10/05 08:47:12;;;;;;;4.03;2.25;;;;;;;19.35;54.38;99700.03;4472017;32;20128;-81
2023/10/05 08:49:43;;;;;;;9.15;2.70;;;;;;;19.61;51.22;99689.13;4473285;32;20107;-82
2023/10/05 08:52:19;;;;;;;5.20;2.00;;;;;;;19.69;53.37;99697.03;4471469;32;20112;-80
2023/10/05 08:54:47;;;;;;;4.70;2.00;;;;;;;19.54;48.80;99698.78;4471284;32;20497;-80
2023/10/05 08:57:16;;;;;;;4.32;1.42;;;;;;;19.49;49.29;99696.63;4474992;31;20488;-78
2023/10/05 08:59:45;;;;;;;5.55;2.10;;;;;;;19.59;48.02;99696.44;4475408;32;20487;-81
2023/10/05 09:02:21;;;;;;;7.25;1.87;;;;;;;19.30;47.45;99695.22;4471038;31;20120;-79
2023/10/05 09:05:00;;;;;;;4.12;1.65;;;;;;;19.32;47.12;99695.06;4473959;31;20164;-79
2023/10/05 09:07:35;;;;;;;3.42;1.50;;;;;;;19.66;50.47;99694.72;4472490;32;20093;-77
2023/10/05 09:10:07;;;;;;;3.50;1.45;;;;;;;19.81;50.35;99688.72;4469948;32;20093;-75
2023/10/05 09:12:37;;;;;;;5.57;1.60;;;;;;;19.77;52.75;99684.72;4474117;31;20101;-76
2023/10/05 09:15:09;;;;;;;7.65;1.67;;;;;;;19.79;50.42;99685.44;4474580;32;20150;-78
2023/10/05 09:17:36;;;;;;;4.75;1.10;;;;;;;19.91;51.28;99686.69;4475767;31;20159;-78
2023/10/05 09:20:21;;;;;;;2.50;1.23;;;;;;;19.92;50.15;99685.66;4474264;31;20104;-76
2023/10/05 09:22:55;;;;;;;3.78;1.37;;;;;;;20.17;51.26;99674.88;4470299;31;20124;-76
2023/10/05 09:25:27;;;;;;;2.50;1.10;;;;;;;20.08;47.50;99673.28;4474510;32;20565;-76
2023/10/05 09:27:57;;;;;;;4.87;1.80;;;;;;;20.17;46.98;99672.22;4475434;32;20100;-75
2023/10/05 09:30:30;;;;;;;4.90;1.40;;;;;;;20.21;47.62;99678.81;4475868;32;21924;-74
2023/10/05 09:33:07;;;;;;;4.20;1.37;;;;;;;20.35;49.45;99672.75;4472591;32;20097;-76
2023/10/05 09:35:35;;;;;;;3.30;1.55;;;;;;;20.38;46.81;99664.41;4472940;32;20088;-74
2023/10/05 09:38:07;;;;;;;7.60;1.73;;;;;;;20.35;46.49;99667.41;4475427;32;20158;-77
2023/10/05 09:40:36;;;;;;;8.43;1.75;;;;;;;20.28;46.79;99663.00;4474448;32;20127;-76
2023/10/05 09:43:05;;;;;;;2.95;1.30;;;;;;;20.40;47.69;99672.22;4471292;32;20160;-78
2023/10/05 09:45:34;;;;;;;2.05;1.10;;;;;;;20.46;47.69;99668.00;4474453;32;20088;-79
2023/10/05 09:48:03;;;;;;;3.47;1.40;;;;;;;20.52;46.26;99659.31;4466720;32;20144;-79
2023/10/05 09:50:31;;;;;;;2.65;1.27;;;;;;;20.54;46.38;99657.28;4471916;31;20088;-77
2023/10/05 09:52:59;;;;;;;7.45;1.70;;;;;;;20.70;48.10;99654.50;4472443;31;20108;-78
2023/10/05 09:55:30;;;;;;;6.82;1.73;;;;;;;20.89;46.88;99660.31;4468697;31;20119;-78
2023/10/05 09:58:05;;;;;;;4.50;1.20;;;;;;;21.04;46.08;99662.97;4471914;31;20164;-78
2023/10/05 10:03:07;;;;;;;5.35;1.70;;;;;;;21.11;46.84;99657.78;4472513;31;20215;-78
2023/10/05 10:05:44;;;;;;;3.80;1.25;;;;;;;21.13;45.27;99650.41;4480157;31;20080;-78
2023/10/05 10:08:20;;;;;;;3.10;1.10;;;;;;;21.05;44.51;99638.81;4481680;32;20093;-78
2023/10/05 10:11:07;;;;;;;3.25;1.42;;;;;;;21.24;43.81;99641.94;4479864;32;20084;-79
2023/10/05 10:13:39;;;;;;;6.47;2.40;;;;;;;21.59;45.76;99635.03;4482578;32;20104;-79
2023/10/05 10:16:26;;;;;;;7.68;1.50;;;;;;;21.86;44.15;99645.16;4481902;31;20080;-78
2023/10/05 10:19:22;;;;;;;2.58;1.48;;;;;;;22.06;44.80;99642.69;4482335;32;20122;-77
2023/10/05 10:21:59;;;;;;;3.47;1.37;;;;;;;22.02;43.76;99636.91;4482321;32;20108;-76
2023/10/05 10:24:29;;;;;;;2.30;1.10;;;;;;;22.13;46.34;99635.56;4487031;31;20119;-81
2023/10/05 10:27:08;;;;;;;2.40;1.37;;;;;;;22.13;44.11;99630.25;4487946;31;20178;-80
2023/10/05 10:29:46;;;;;;;3.33;1.40;;;;;;;22.35;43.54;99630.25;4486509;31;20108;-81
2023/10/05 10:32:19;;;;;;;3.30;1.37;;;;;;;22.25;42.29;99619.87;4470719;32;20076;-75
2023/10/05 10:37:43;;;;;;;11.12;1.60;;;;;;;21.48;42.85;99616.81;4483014;32;20095;-75
2023/10/05 10:45:41;;;;;;;5.72;1.20;;;;;;;21.74;42.82;99605.66;4474218;32;20143;-75
2023/10/05 10:48:20;;;;;;;2.37;1.10;;;;;;;21.68;42.34;99600.25;4481783;31;20095;-75
2023/10/05 10:50:53;;;;;;;4.77;1.77;;;;;;;21.17;44.78;99593.91;4485765;31;20088;-75
2023/10/05 10:53:25;;;;;;;2.83;1.17;;;;;;;21.21;44.08;99591.66;4475810;31;20192;-75
2023/10/05 10:56:03;;;;;;;3.58;1.45;;;;;;;21.11;43.78;99591.16;4472391;31;20096;-74
2023/10/05 10:58:33;;;;;;;1.60;1.20;;;;;;;21.28;45.22;99579.25;4474805;32;20089;-73
2023/10/05 11:01:04;;;;;;;1.98;0.82;;;;;;;21.45;45.45;99580.72;4473666;32;20873;-74
2023/10/05 11:03:36;;;;;;;2.50;1.10;;;;;;;21.32;44.09;99572.56;4472047;32;20775;-75
2023/10/05 11:06:04;;;;;;;2.33;1.23;;;;;;;21.61;45.62;99568.19;4472949;32;20116;-74
2023/10/05 11:08:32;;;;;;;3.37;1.20;;;;;;;21.74;43.54;99573.66;4476047;31;20165;-74
2023/10/05 11:11:09;;;;;;;5.43;1.35;;;;;;;21.75;43.88;99575.28;4480362;31;20096;-75
2023/10/05 11:13:45;;;;;;;2.78;1.12;;;;;;;21.74;43.08;99565.66;4479892;32;20134;-79
2023/10/05 11:16:15;;;;;;;3.67;1.20;;;;;;;21.81;42.85;99563.03;4473283;31;20874;-79
2023/10/05 11:19:03;;;;;;;2.33;1.10;;;;;;;21.74;44.44;99552.31;4472699;31;20101;-79
2023/10/05 11:21:45;;;;;;;2.03;1.08;;;;;;;21.57;44.41;99556.25;4473389;31;20602;-79
2023/10/05 11:24:18;;;;;;;2.33;0.90;;;;;;;21.23;44.01;99555.84;4474562;31;20138;-79
2023/10/05 11:29:29;;;;;;;4.30;1.23;;;;;;;21.21;44.66;99546.38;4473847;32;20130;-80
2023/10/05 11:32:10;;;;;;;2.65;1.27;;;;;;;21.45;44.60;99545.22;4480161;32;20096;-79
2023/10/05 11:35:04;;;;;;;3.25;1.27;;;;;;;21.70;45.85;99540.38;4480422;32;20123;-79
2023/10/05 11:37:58;;;;;;;7.55;1.20;;;;;;;22.08;44.47;99531.25;4472589;32;20150;-79
2023/10/05 11:40:31;;;;;;;7.97;1.30;;;;;;;22.24;46.35;99524.81;4477222;32;20138;-79
2023/10/05 11:43:04;;;;;;;3.33;1.05;;;;;;;22.32;43.19;99524.69;4469504;32;20743;-80
2023/10/05 11:45:33;;;;;;;;;;;;;;;22.23;42.45;99523.16;4471807;32;20161;-78
2023/10/05 11:48:11;;;;;;;4.28;1.75;;;;;;;22.13;43.29;99523.50;4480375;32;20025;-79
2023/10/05 11:50:52;;;;;;;1.95;1.00;;;;;;;21.99;43.93;99517.22;4475381;32;20127;-79
2023/10/05 11:53:24;;;;;;;6.18;1.15;;;;;;;22.13;43.10;99519.00;4474135;32;20118;-79
2023/10/05 11:55:52;;;;;;;2.55;1.20;;;;;;;22.01;41.85;99512.53;4476086;32;20127;-78
2023/10/05 11:58:22;;;;;;;4.55;1.25;;;;;;;21.99;43.67;99501.22;4474163;32;20130;-78
2023/10/05 12:00:50;;;;;;;3.95;1.17;;;;;;;21.88;43.09;99505.25;4480559;31;20457;-78
2023/10/05 12:03:18;;;;;;;3.42;1.50;;;;;;;21.88;42.99;99507.09;4472914;32;20104;-78
2023/10/05 12:05:50;;;;;;;3.95;0.98;;;;;;;22.03;42.55;99501.66;4475370;31;20088;-79
2023/10/05 12:08:17;;;;;;;3.25;0.98;;;;;;;22.10;43.35;99500.69;4483602;31;20161;-77
2023/10/05 12:10:45;;;;;;;2.80;0.95;;;;;;;22.06;43.43;99506.59;4482743;31;20100;-78
2023/10/05 12:13:15;;;;;;;5.87;1.60;;;;;;;21.97;42.61;99506.75;4480840;31;20171;-77
2023/10/05 12:15:46;;;;;;;3.10;1.10;;;;;;;22.10;42.52;99497.19;4476066;32;20100;-78
2023/10/05 12:18:13;;;;;;;4.10;1.35;;;;;;;21.97;43.20;99506.75;4483398;32;20479;-78